createdAt,value
2024-05-09T00:01:55.430Z,98609.28
2024-05-09T00:06:57.176Z,98608.69
2024-05-09T00:12:01.868Z,98602.31
2024-05-09T00:17:03.744Z,98600.72
2024-05-09T00:22:05.612Z,98592.00
2024-05-09T00:27:12.697Z,98585.41
2024-05-09T00:32:15.077Z,98581.34
2024-05-09T00:37:17.226Z,98579.22
2024-05-09T00:42:21.744Z,98583.88
2024-05-09T00:47:24.656Z,98577.22
2024-05-09T00:52:26.735Z,98574.16
2024-05-09T00:57:31.607Z,98550.66
2024-05-09T01:02:33.646Z,98554.88
2024-05-09T01:07:35.607Z,98551.97
2024-05-09T01:12:40.072Z,98548.56
2024-05-09T01:17:42.109Z,98547.06
2024-05-09T01:22:44.239Z,98547.16
2024-05-09T01:27:48.763Z,98536.03
2024-05-09T01:32:50.765Z,98536.91
2024-05-09T01:37:52.972Z,98532.84
2024-05-09T01:42:57.417Z,98532.84
2024-05-09T01:47:59.291Z,98516.38
2024-05-09T01:53:01.432Z,98505.41
2024-05-09T01:58:06.181Z,98505.22
2024-05-09T02:03:08.766Z,98496.31
2024-05-09T02:08:11.500Z,98498.81
2024-05-09T02:13:16.632Z,98475.00
2024-05-09T02:18:18.797Z,98485.56
2024-05-09T02:23:20.954Z,98484.34
2024-05-09T02:28:27.358Z,98476.16
2024-05-09T02:33:29.310Z,98477.59
2024-05-09T02:38:31.570Z,98476.84
2024-05-09T02:43:36.142Z,98482.47
2024-05-09T02:48:38.102Z,98462.28
2024-05-09T02:53:40.102Z,98457.88
2024-05-09T02:58:44.604Z,98455.84
2024-05-09T03:03:50.883Z,98451.31
2024-05-09T03:08:52.774Z,98443.03
2024-05-09T03:13:59.033Z,98434.63
2024-05-09T03:19:00.887Z,98439.25
2024-05-09T03:24:02.624Z,98429.09
2024-05-09T03:29:07.015Z,98421.81
2024-05-09T03:34:08.894Z,98426.84
2024-05-09T03:39:12.986Z,98400.69
2024-05-09T03:44:17.506Z,98420.03
2024-05-09T03:49:19.616Z,98415.94
2024-05-09T03:54:22.314Z,98410.91
2024-05-09T03:59:26.990Z,98404.94
2024-05-09T04:04:28.400Z,98398.34
2024-05-09T04:09:30.984Z,98378.69
2024-05-09T04:14:36.549Z,98380.69
2024-05-09T04:19:39.593Z,98370.97
2024-05-09T04:24:41.684Z,98373.25
2024-05-09T04:29:46.657Z,98361.00
2024-05-09T04:34:48.526Z,98358.38
2024-05-09T04:39:50.652Z,98354.81
2024-05-09T04:44:58.273Z,98349.47
2024-05-09T04:50:00.488Z,98345.00
2024-05-09T04:55:03.732Z,98341.78
2024-05-09T05:00:14.952Z,98332.53
2024-05-09T05:05:23.457Z,98337.22
2024-05-09T05:10:33.220Z,98321.91
2024-05-09T05:15:41.396Z,98304.59
2024-05-09T05:20:43.705Z,98302.38
2024-05-09T05:25:53.028Z,98297.69
2024-05-09T05:30:57.835Z,98290.56
2024-05-09T05:35:59.440Z,98282.91
2024-05-09T05:41:01.588Z,98278.25
2024-05-09T05:46:06.136Z,98273.59
2024-05-09T05:51:08.267Z,98266.03
2024-05-09T05:56:10.445Z,98257.25
2024-05-09T06:01:14.945Z,98259.69
2024-05-09T06:06:17.690Z,98253.00
2024-05-09T06:11:19.795Z,98245.56
2024-05-09T06:16:24.352Z,98238.38
2024-05-09T06:21:26.210Z,98233.31
2024-05-09T06:26:27.909Z,98225.66
2024-05-09T06:31:32.407Z,98221.59
2024-05-09T06:36:34.119Z,98218.91
2024-05-09T06:41:36.795Z,98203.06
2024-05-09T06:46:42.424Z,98202.00
2024-05-09T06:51:44.558Z,98199.00
2024-05-09T06:56:46.336Z,98189.69
2024-05-09T07:01:50.755Z,98174.19
2024-05-09T07:06:52.623Z,98175.16
2024-05-09T07:11:54.733Z,98152.22
2024-05-09T07:16:59.558Z,98152.75
2024-05-09T07:27:29.775Z,98136.50
2024-05-09T07:32:34.744Z,98134.91
2024-05-09T07:37:36.730Z,98125.75
2024-05-09T07:42:38.947Z,98119.66
2024-05-09T07:49:13.632Z,98119.13
2024-05-09T07:53:37.128Z,98101.31
2024-05-09T07:58:33.254Z,98103.03
2024-05-09T08:03:41.036Z,98065.75
2024-05-09T08:08:42.962Z,98098.06
2024-05-09T08:13:48.269Z,98080.47
2024-05-09T08:18:52.942Z,98082.41
2024-05-09T08:23:54.880Z,98051.69
2024-05-09T08:28:56.626Z,98047.97
2024-05-09T08:34:01.274Z,98055.53
2024-05-09T08:39:03.160Z,98047.72
2024-05-09T08:44:06.455Z,98032.84
2024-05-09T08:49:11.046Z,98020.66
2024-05-09T08:54:13.032Z,98014.13
2024-05-09T08:59:21.023Z,98011.72
2024-05-09T09:04:27.338Z,98002.63
2024-05-09T09:09:31.169Z,97997.22
2024-05-09T09:14:32.974Z,97998.22
2024-05-09T09:19:40.676Z,97991.28
2024-05-09T09:24:43.353Z,97972.81
2024-05-09T09:29:45.164Z,97980.06
2024-05-09T09:34:51.935Z,97937.00
2024-05-09T09:39:54.741Z,97947.50
2024-05-09T09:45:04.416Z,97940.00
2024-05-09T09:50:14.549Z,97926.84
2024-05-09T09:55:19.246Z,97910.56
2024-05-09T10:00:27.073Z,97906.91
2024-05-09T10:05:38.482Z,97900.69
2024-05-09T10:10:45.472Z,97885.81
2024-05-09T10:16:10.666Z,97877.22
2024-05-09T10:21:34.251Z,97873.41
2024-05-09T10:26:37.120Z,97861.44
2024-05-09T10:31:42.695Z,97854.34
2024-05-09T10:36:48.788Z,97859.28
2024-05-09T10:41:54.263Z,97831.03
2024-05-09T10:46:57.063Z,97851.38
2024-05-09T10:52:01.644Z,97841.44
2024-05-09T10:57:03.505Z,97836.69
2024-05-09T11:02:08.202Z,97827.88
2024-05-09T11:07:16.250Z,97826.53
2024-05-09T11:12:20.032Z,97817.50
2024-05-09T11:17:23.269Z,97804.59
2024-05-09T11:22:27.852Z,97803.84
2024-05-09T11:27:29.737Z,97793.56
2024-05-09T11:32:33.335Z,97776.97
2024-05-09T11:37:43.062Z,97767.28
2024-05-09T11:42:48.236Z,97764.53
2024-05-09T11:47:52.629Z,97758.00
2024-05-09T11:52:57.232Z,97754.84
2024-05-09T11:58:03.710Z,97737.56
2024-05-09T12:03:05.977Z,97729.66
2024-05-09T12:08:11.652Z,97734.34
2024-05-09T12:13:23.356Z,97705.22
2024-05-09T12:18:25.255Z,97714.38
2024-05-09T12:23:29.684Z,97702.13
2024-05-09T12:28:31.577Z,97689.75
2024-05-09T12:33:33.441Z,97697.19
2024-05-09T12:38:37.972Z,97680.13
2024-05-09T12:43:39.889Z,97696.44
2024-05-09T12:48:42.217Z,97693.66
2024-05-09T12:53:46.754Z,97682.53
2024-05-09T12:58:48.561Z,97681.28
2024-05-09T13:03:50.613Z,97669.28
2024-05-09T13:08:55.150Z,97668.31
2024-05-09T13:13:56.925Z,97651.31
2024-05-09T13:18:58.813Z,97654.28
2024-05-09T13:24:03.389Z,97637.63
2024-05-09T13:29:05.236Z,97633.88
2024-05-09T13:34:07.106Z,97621.28
2024-05-09T13:39:14.200Z,97601.31
2024-05-09T13:44:16.085Z,97594.44
2024-05-09T13:49:18.460Z,97594.28
2024-05-09T13:54:23.070Z,97583.66
2024-05-09T13:59:24.833Z,97585.94
2024-05-09T14:04:27.029Z,97571.91
2024-05-09T14:09:31.954Z,97568.13
2024-05-09T14:14:33.793Z,97565.66
2024-05-09T14:19:35.558Z,97557.66
2024-05-09T14:24:40.085Z,97543.75
2024-05-09T14:29:41.846Z,97541.28
2024-05-09T14:34:43.657Z,97540.63
2024-05-09T14:39:48.723Z,97531.13
2024-05-09T14:44:50.724Z,97522.16
2024-05-09T14:49:53.339Z,97514.63
2024-05-09T14:55:00.735Z,97499.28
2024-05-09T15:00:05.043Z,97493.88
2024-05-09T15:05:07.397Z,97496.50
2024-05-09T15:10:20.339Z,97478.66
2024-05-09T15:15:25.686Z,97465.44
2024-05-09T15:20:33.995Z,97464.78
2024-05-09T15:25:40.712Z,97458.41
2024-05-09T15:30:46.121Z,97441.41
2024-05-09T15:35:48.797Z,97451.06
2024-05-09T15:40:53.272Z,97443.34
2024-05-09T15:45:55.223Z,97425.84
2024-05-09T15:50:57.416Z,97423.41
2024-05-09T15:56:02.045Z,97424.56
2024-05-09T16:01:03.992Z,97408.69
2024-05-09T16:06:06.005Z,97402.66
2024-05-09T16:11:10.727Z,97402.16
2024-05-09T16:16:12.909Z,97387.00
2024-05-09T16:21:14.805Z,97384.22
2024-05-09T16:26:19.303Z,97386.16
2024-05-09T16:31:21.058Z,97377.00
2024-05-09T16:36:23.002Z,97376.97
2024-05-09T16:41:27.440Z,97351.16
2024-05-09T16:46:29.432Z,97357.66
2024-05-09T16:51:33.636Z,97355.34
2024-05-09T16:56:38.230Z,97355.59
2024-05-09T17:01:40.153Z,97354.69
2024-05-09T17:06:42.182Z,97350.75
2024-05-09T17:11:46.936Z,97357.00
2024-05-09T17:18:01.150Z,97347.03
2024-05-09T17:23:03.200Z,97335.25
2024-05-09T17:28:08.611Z,97349.03
2024-05-09T17:33:12.726Z,97337.69
2024-05-09T17:38:15.355Z,97330.13
2024-05-09T17:43:20.079Z,97331.34
2024-05-09T17:48:22.862Z,97311.84
2024-05-09T17:53:24.999Z,97305.63
2024-05-09T17:58:30.041Z,97289.50
2024-05-09T18:03:32.156Z,97303.03
2024-05-09T18:08:33.975Z,97304.81
2024-05-09T18:13:38.609Z,97298.41
2024-05-09T18:18:40.825Z,97280.59
2024-05-09T18:23:42.931Z,97277.31
2024-05-09T18:28:47.616Z,97279.22
2024-05-09T18:33:49.697Z,97266.47
2024-05-09T18:38:52.408Z,97269.81
2024-05-09T18:43:57.537Z,97269.13
2024-05-09T19:27:05.401Z,97222.09
2024-05-09T19:32:07.409Z,97218.75
2024-05-09T19:37:09.371Z,97210.66
2024-05-09T19:42:14.030Z,97204.47
2024-05-09T19:47:16.164Z,97210.75
2024-05-09T19:52:19.046Z,97206.03
2024-05-09T19:57:23.577Z,97191.56
2024-05-09T20:02:25.836Z,97189.25
2024-05-09T20:07:27.644Z,97194.47
2024-05-09T20:12:32.126Z,97194.91
2024-05-09T20:17:34.131Z,97184.44
2024-05-09T20:22:35.969Z,97180.50
2024-05-09T20:27:40.614Z,97182.72
2024-05-09T20:32:42.473Z,97180.56
2024-05-09T20:37:44.299Z,97182.50
2024-05-09T20:42:48.823Z,97174.03
2024-05-09T20:47:50.605Z,97169.13
2024-05-09T20:52:52.405Z,97166.81
2024-05-09T20:57:57.057Z,97168.09
2024-05-09T21:02:59.128Z,97161.25
2024-05-09T21:08:01.478Z,97161.25
2024-05-09T21:13:07.006Z,97161.38
2024-05-09T21:18:09.778Z,97150.66
2024-05-09T21:23:11.718Z,97156.00
2024-05-09T21:28:16.704Z,97146.25
2024-05-09T21:33:18.707Z,97152.94
2024-05-09T21:38:20.701Z,97148.19
2024-05-09T21:43:27.131Z,97147.06
2024-05-09T21:48:28.952Z,97147.75
2024-05-09T21:53:30.669Z,97137.50
2024-05-09T21:58:35.090Z,97135.56
2024-05-09T22:03:36.985Z,97132.16
2024-05-09T22:08:38.791Z,97141.19
2024-05-09T22:13:43.345Z,97135.13
2024-05-09T22:18:45.336Z,97129.63
2024-05-09T22:23:47.418Z,97138.38
2024-05-09T22:28:52.236Z,97134.44
2024-05-09T22:33:54.417Z,97129.91
2024-05-09T22:38:56.520Z,97124.47
2024-05-09T22:44:02.246Z,97126.03
2024-05-09T22:49:04.426Z,97122.63
2024-05-09T22:54:08.130Z,97128.63
2024-05-09T22:59:12.643Z,97119.66
2024-05-09T23:04:14.053Z,97125.22
2024-05-09T23:09:16.094Z,97123.19
2024-05-09T23:14:20.542Z,97122.41
2024-05-09T23:19:21.904Z,97119.66
2024-05-09T23:24:23.654Z,97123.34
2024-05-09T23:29:28.401Z,97123.50
2024-05-09T23:34:30.145Z,97128.41
2024-05-09T23:39:32.028Z,97126.63
2024-05-09T23:44:36.951Z,97124.31
2024-05-09T23:49:38.789Z,97121.88
2024-05-09T23:54:40.701Z,97116.72
2024-05-09T23:59:45.263Z,97129.28
